createdAt,value
2023-03-03T00:03:10.637Z,10.50
2023-03-03T00:08:12.595Z,14.27
2023-03-03T00:13:23.077Z,11.57
2023-03-03T00:18:35.823Z,9.52
2023-03-03T00:23:40.568Z,8.93
2023-03-03T00:28:48.374Z,11.63
2023-03-03T00:33:55.002Z,15.18
2023-03-03T00:39:10.169Z,11.73
2023-03-03T00:44:42.996Z,11.05
2023-03-03T00:49:44.877Z,9.93
2023-03-03T00:54:46.951Z,12.00
2023-03-03T00:59:48.718Z,11.55
2023-03-03T01:04:53.218Z,11.40
2023-03-03T01:09:55.014Z,11.75
2023-03-03T01:14:57.311Z,12.75
2023-03-03T01:19:59.184Z,11.43
2023-03-03T01:25:03.445Z,9.88
2023-03-03T01:30:07.287Z,10.50
2023-03-03T01:35:09.406Z,9.98
2023-03-03T01:40:17.094Z,13.15
2023-03-03T01:45:21.627Z,9.68
2023-03-03T01:50:35.091Z,14.48
2023-03-03T01:55:39.434Z,14.73
2023-03-03T02:00:43.771Z,10.05
2023-03-03T02:05:45.626Z,12.57
2023-03-03T02:10:48.801Z,10.23
2023-03-03T02:15:50.797Z,10.05
2023-03-03T02:20:59.632Z,8.85
2023-03-03T02:26:14.011Z,11.65
2023-03-03T02:31:19.352Z,10.43
2023-03-03T02:36:30.739Z,12.48
2023-03-03T02:41:57.234Z,14.43
2023-03-03T02:47:04.206Z,11.27
2023-03-03T02:52:11.685Z,10.50
2023-03-03T02:57:16.215Z,12.40
2023-03-03T03:02:19.358Z,10.50
2023-03-03T03:07:21.740Z,11.73
2023-03-03T03:12:23.799Z,13.95
2023-03-03T03:17:28.901Z,13.75
2023-03-03T03:22:30.678Z,15.20
2023-03-03T03:27:32.700Z,11.13
2023-03-03T03:32:34.738Z,11.38
2023-03-03T03:37:36.702Z,8.45
2023-03-03T03:42:39.656Z,9.98
2023-03-03T03:47:42.757Z,13.30
2023-03-03T03:52:44.860Z,14.63
2023-03-03T03:57:47.783Z,13.60
2023-03-03T04:02:50.667Z,11.95
2023-03-03T04:07:53.696Z,10.88
2023-03-03T04:12:55.666Z,9.13
2023-03-03T04:17:59.060Z,12.80
2023-03-03T04:23:01.574Z,16.23
2023-03-03T04:28:05.632Z,12.00
2023-03-03T04:33:07.998Z,12.38
2023-03-03T04:38:12.902Z,16.55
2023-03-03T04:43:15.983Z,10.80
2023-03-03T04:48:17.914Z,10.35
2023-03-03T04:53:19.814Z,12.88
2023-03-03T04:58:22.040Z,10.60
2023-03-03T05:03:25.002Z,11.30
2023-03-03T05:08:26.972Z,11.60
2023-03-03T05:13:29.052Z,12.52
2023-03-03T05:18:30.827Z,11.50
2023-03-03T05:23:32.676Z,10.80
2023-03-03T05:28:34.485Z,12.68
2023-03-03T05:33:36.301Z,13.35
2023-03-03T05:38:38.316Z,12.90
2023-03-03T05:43:40.551Z,18.08
2023-03-03T05:48:43.001Z,11.98
2023-03-03T05:53:44.831Z,11.82
2023-03-03T05:58:46.658Z,14.90
2023-03-03T06:03:48.371Z,17.88
2023-03-03T06:08:50.188Z,14.40
2023-03-03T06:13:52.065Z,12.43
2023-03-03T06:18:53.904Z,13.43
2023-03-03T06:23:55.780Z,16.15
2023-03-03T06:28:57.602Z,20.65
2023-03-03T06:33:59.363Z,14.18
2023-03-03T06:39:01.173Z,17.20
2023-03-03T06:44:03.325Z,11.20
2023-03-03T06:49:05.326Z,11.75
2023-03-03T06:54:21.629Z,14.77
2023-03-03T06:59:23.836Z,21.20
2023-03-03T07:04:33.891Z,24.80
2023-03-03T07:09:35.732Z,30.75
2023-03-03T07:14:46.447Z,29.70
2023-03-03T07:19:48.762Z,26.98
2023-03-03T07:24:57.317Z,29.65
2023-03-03T07:30:29.517Z,31.63
2023-03-03T07:35:41.108Z,26.63
2023-03-03T07:40:49.326Z,29.88
2023-03-03T07:45:51.653Z,30.67
2023-03-03T07:50:53.455Z,32.78
2023-03-03T07:55:55.905Z,31.25
2023-03-03T08:01:35.293Z,30.92
2023-03-03T08:06:37.118Z,31.88
2023-03-03T08:11:52.440Z,30.27
2023-03-03T08:16:55.327Z,32.53
2023-03-03T08:22:09.267Z,32.00
2023-03-03T08:27:11.658Z,34.20
2023-03-03T08:32:13.552Z,32.35
2023-03-03T08:37:15.353Z,46.25
2023-03-03T08:42:17.102Z,34.28
2023-03-03T08:47:18.917Z,34.78
2023-03-03T08:52:20.974Z,35.88
2023-03-03T08:57:22.856Z,31.95
2023-03-03T09:02:24.824Z,35.20
2023-03-03T09:07:26.705Z,30.20
2023-03-03T09:12:35.204Z,31.90
2023-03-03T09:17:38.207Z,29.27
2023-03-03T09:22:40.140Z,33.15
2023-03-03T09:27:42.017Z,30.42
2023-03-03T09:32:43.992Z,29.58
2023-03-03T09:37:48.102Z,33.08
2023-03-03T09:43:04.073Z,29.42
2023-03-03T09:48:32.383Z,35.22
2023-03-03T09:54:04.618Z,30.60
2023-03-03T09:59:35.746Z,32.78
2023-03-03T10:04:43.855Z,32.28
2023-03-03T10:10:23.211Z,28.83
2023-03-03T10:15:30.948Z,28.20
2023-03-03T10:20:59.570Z,28.27
2023-03-03T10:31:32.244Z,30.13
2023-03-03T10:36:46.678Z,29.77
2023-03-03T10:42:17.127Z,29.13
2023-03-03T10:47:47.134Z,27.75
2023-03-03T10:52:55.045Z,27.58
2023-03-03T11:03:19.227Z,24.20
2023-03-03T11:08:26.594Z,24.60
2023-03-03T11:13:31.063Z,30.88
2023-03-03T11:18:41.850Z,34.35
2023-03-03T11:24:02.930Z,25.17
2023-03-03T11:29:24.263Z,25.02
2023-03-03T11:34:50.450Z,30.23
2023-03-03T11:39:55.736Z,40.33
2023-03-03T11:45:11.231Z,30.13
2023-03-03T11:50:43.744Z,33.25
2023-03-03T11:55:52.561Z,32.38
2023-03-03T12:01:06.403Z,27.77
2023-03-03T12:06:40.646Z,27.38
2023-03-03T12:11:49.452Z,30.77
2023-03-03T12:16:54.296Z,28.00
2023-03-03T12:22:26.884Z,34.50
2023-03-03T12:27:47.931Z,32.00
2023-03-03T12:33:10.969Z,30.35
2023-03-03T12:38:31.295Z,29.17
2023-03-03T12:44:16.720Z,28.13
2023-03-03T12:49:19.121Z,30.75
2023-03-03T12:54:27.007Z,30.20
2023-03-03T13:00:06.984Z,28.38
2023-03-03T13:05:29.853Z,29.65
2023-03-03T13:10:41.898Z,32.50
2023-03-03T13:16:06.149Z,37.92
2023-03-03T13:21:17.152Z,27.92
2023-03-03T13:26:47.715Z,27.00
2023-03-03T13:31:56.966Z,26.67
2023-03-03T13:37:32.102Z,27.85
2023-03-03T13:42:41.615Z,29.75
2023-03-03T13:47:48.424Z,25.55
2023-03-03T13:52:57.877Z,33.17
2023-03-03T13:58:10.755Z,30.77
2023-03-03T14:03:43.670Z,35.63
2023-03-03T14:09:17.089Z,25.92
2023-03-03T14:14:36.864Z,24.92
2023-03-03T14:19:50.896Z,26.52
2023-03-03T14:25:12.215Z,33.03
2023-03-03T14:30:23.830Z,24.10
2023-03-03T14:35:32.253Z,26.98
2023-03-03T14:40:37.779Z,28.10
2023-03-03T14:45:41.662Z,27.67
2023-03-03T14:50:52.651Z,31.65
2023-03-03T14:55:54.668Z,31.85
2023-03-03T15:01:33.134Z,33.70
2023-03-03T15:06:43.833Z,30.70
2023-03-03T15:11:45.939Z,33.67
2023-03-03T15:16:47.933Z,24.92
2023-03-03T15:22:07.885Z,24.90
2023-03-03T15:27:25.863Z,25.92
2023-03-03T15:32:34.542Z,26.98
2023-03-03T15:38:02.842Z,25.02
2023-03-03T15:43:27.419Z,25.50
2023-03-03T15:48:41.893Z,24.27
2023-03-03T15:54:20.521Z,21.98
2023-03-03T15:59:30.745Z,20.40
2023-03-03T16:04:37.305Z,25.02
2023-03-03T16:10:03.891Z,26.15
2023-03-03T16:15:11.806Z,21.85
2023-03-03T16:25:34.747Z,20.17
2023-03-03T16:30:56.638Z,17.13
2023-03-03T16:36:07.216Z,18.02
2023-03-03T16:41:37.688Z,18.20
2023-03-03T16:46:48.327Z,24.27
2023-03-03T16:51:56.332Z,21.77
2023-03-03T17:07:51.608Z,25.10
2023-03-03T17:13:15.820Z,19.13
2023-03-03T17:18:40.450Z,18.80
2023-03-03T17:24:16.175Z,26.92
2023-03-03T17:29:43.355Z,23.35
2023-03-03T17:35:08.611Z,22.60
2023-03-03T17:40:42.286Z,23.17
2023-03-03T17:45:48.050Z,23.23
2023-03-03T17:51:31.577Z,22.77
2023-03-03T17:56:57.819Z,24.92
2023-03-03T18:02:21.513Z,27.17
2023-03-03T18:07:35.186Z,24.17
2023-03-03T18:12:52.143Z,23.98
2023-03-03T18:18:02.719Z,22.50
2023-03-03T18:23:31.548Z,26.58
2023-03-03T18:28:49.395Z,22.50
2023-03-03T18:34:22.965Z,25.17
2023-03-03T18:39:48.620Z,25.05
2023-03-03T18:44:50.401Z,27.45
2023-03-03T18:50:17.472Z,26.88
2023-03-03T18:55:19.274Z,27.00
2023-03-03T19:00:29.514Z,28.27
2023-03-03T19:05:46.280Z,23.60
2023-03-03T19:10:54.528Z,24.00
2023-03-03T19:15:59.299Z,27.25
2023-03-03T19:21:11.649Z,22.67
2023-03-03T19:26:25.716Z,25.45
2023-03-03T19:31:40.508Z,23.63
2023-03-03T19:37:03.118Z,23.02
2023-03-03T19:42:25.654Z,27.50
2023-03-03T19:47:30.534Z,20.45
2023-03-03T19:53:15.073Z,21.92
2023-03-03T19:58:29.245Z,24.95
2023-03-03T20:03:55.378Z,23.33
2023-03-03T20:09:05.001Z,22.50
2023-03-03T20:14:44.342Z,19.15
2023-03-03T20:19:56.099Z,21.05
2023-03-03T20:25:15.489Z,19.70
2023-03-03T20:30:36.685Z,26.80
2023-03-03T20:35:48.835Z,26.17
2023-03-03T20:40:58.737Z,24.35
2023-03-03T20:46:11.548Z,24.75
2023-03-03T20:51:28.620Z,23.10
2023-03-03T20:56:49.411Z,18.73
2023-03-03T21:02:04.536Z,25.00
2023-03-03T21:07:06.397Z,20.98
2023-03-03T21:12:26.619Z,23.70
2023-03-03T21:17:31.197Z,21.85
2023-03-03T21:22:33.648Z,19.45
2023-03-03T21:27:39.223Z,21.48
2023-03-03T21:32:43.682Z,24.30
2023-03-03T21:37:55.130Z,27.45
2023-03-03T21:42:58.958Z,25.65
2023-03-03T21:48:03.575Z,19.70
2023-03-03T21:53:05.458Z,22.15
2023-03-03T21:58:07.262Z,21.38
2023-03-03T22:03:09.389Z,21.30
2023-03-03T22:08:11.259Z,21.45
2023-03-03T22:13:14.059Z,20.15
2023-03-03T22:18:20.792Z,20.38
2023-03-03T22:23:22.548Z,22.87
2023-03-03T22:28:24.439Z,20.20
2023-03-03T22:33:26.236Z,17.38
2023-03-03T22:38:27.952Z,19.60
2023-03-03T22:43:29.771Z,18.80
2023-03-03T22:48:32.183Z,23.05
2023-03-03T22:53:34.020Z,19.67
2023-03-03T22:58:35.869Z,17.67
2023-03-03T23:03:37.853Z,19.83
2023-03-03T23:08:39.629Z,20.95
2023-03-03T23:13:41.514Z,18.63
2023-03-03T23:18:43.334Z,16.02
2023-03-03T23:23:45.083Z,16.15
2023-03-03T23:28:46.881Z,20.23
2023-03-03T23:33:48.652Z,18.60
2023-03-03T23:38:50.647Z,16.63
2023-03-03T23:43:52.448Z,17.88
2023-03-03T23:48:54.199Z,19.17
2023-03-03T23:53:56.530Z,18.75
2023-03-03T23:58:58.290Z,16.35
